Terminal Aerodrome Forecast
Issued by NWS

Home | Current Version | Previous Version | Text Only | Print | Product List | Glossary On
Versions: 1 2 3 4 5 6 7 8 9 10 11 12 13 14 15 16 17 18 19 20
000
FTUS43 KLSX 160800 AAA
TAFCPS
TAF AMD
KCPS 160854Z 1609/1706 VRB03KT P6SM BKN008 OVC020
      TEMPO 1610/1614 4SM BR
     FM161400 VRB03KT P6SM BKN015
     FM161700 VRB03KT P6SM SCT020=

USA.gov is the U.S. government's official web portal to all federal, state and local government web resources and services.